EWG5E EDDH-LIPZ
Flight info
| Callsign | EWG5E |
|---|---|
| Flight time | 1h 24m |
| Altitude | 35000 |
| Route | AMLUH2G AMLUH M852 DENIX DCT ZUCKA DCT AKOSI DCT ALUTU DCT BADVI DCT BERAS M736 OLPIX DCT EKPEB DCT NAXAV DCT ADOSA L612 ALBET |
| Aircraft | A319/M-SDE3FGHIRWY/LB1 |
Departure
| Time | 2026-02-18 11:06 |
|---|---|
| Airport | Hamburg Helmut Schmidt Airport (EDDH) |
Arrival
| Time | 2026-02-18 12:31 |
|---|---|
| Airport | Venice Marco Polo Airport (LIPZ) |
| Time | Latitude | Longitude | Altitude | Speed | Heading |
|---|---|---|---|---|---|
| 2026-02-18 10:31 | 53.62843 | 10.00212 | 49 ft | 0 kts | 63° |
| 2026-02-18 10:57 | 53.62842 | 10.00209 | 48 ft | 1 kts | 62° |
| 2026-02-18 10:57 | 53.62833 | 10.00183 | 48 ft | 3 kts | 59° |
| 2026-02-18 10:58 | 53.62822 | 10.00154 | 45 ft | 3 kts | 51° |
| 2026-02-18 10:58 | 53.62809 | 10.00130 | 47 ft | 3 kts | 32° |
| 2026-02-18 10:58 | 53.62794 | 10.00119 | 47 ft | 2 kts | 347° |
| 2026-02-18 10:58 | 53.62788 | 10.00121 | 46 ft | 0 kts | 333° |
| 2026-02-18 11:02 | 53.62791 | 10.00118 | 46 ft | 2 kts | 333° |
| 2026-02-18 11:02 | 53.62817 | 10.00096 | 48 ft | 6 kts | 333° |
| 2026-02-18 11:02 | 53.62855 | 10.00043 | 48 ft | 5 kts | 297° |
| 2026-02-18 11:02 | 53.62851 | 9.99977 | 45 ft | 8 kts | 246° |
| 2026-02-18 11:03 | 53.62844 | 9.99957 | 46 ft | 0 kts | 242° |
| 2026-02-18 11:04 | 53.62843 | 9.99953 | 46 ft | 2 kts | 242° |
| 2026-02-18 11:05 | 53.62826 | 9.99898 | 47 ft | 8 kts | 242° |
| 2026-02-18 11:05 | 53.62861 | 9.99751 | 45 ft | 11 kts | 334° |
| 2026-02-18 11:05 | 53.63039 | 9.99596 | 45 ft | 57 kts | 333° |
| 2026-02-18 11:06 | 53.63596 | 9.99116 | 48 ft | 118 kts | 333° |
| 2026-02-18 11:06 | 53.64479 | 9.98350 | 115 ft | 161 kts | 332° |
| 2026-02-18 11:06 | 53.65460 | 9.97518 | 870 ft | 157 kts | 333° |
| 2026-02-18 11:06 | 53.66461 | 9.96687 | 1494 ft | 169 kts | 334° |
| 2026-02-18 11:07 | 53.67589 | 9.95731 | 1853 ft | 194 kts | 333° |
| 2026-02-18 11:07 | 53.68850 | 9.94762 | 2494 ft | 204 kts | 344° |
| 2026-02-18 11:07 | 53.70292 | 9.94697 | 3267 ft | 207 kts | 4° |
| 2026-02-18 11:07 | 53.71752 | 9.94805 | 4260 ft | 206 kts | 5° |
| 2026-02-18 11:08 | 53.73059 | 9.95749 | 5129 ft | 211 kts | 43° |
| 2026-02-18 11:08 | 53.73687 | 9.97971 | 6013 ft | 219 kts | 74° |
| 2026-02-18 11:08 | 53.73991 | 10.00528 | 6922 ft | 219 kts | 75° |
| 2026-02-18 11:08 | 53.74023 | 10.03186 | 7728 ft | 230 kts | 94° |
| 2026-02-18 11:09 | 53.73507 | 10.05823 | 8287 ft | 255 kts | 114° |
| 2026-02-18 11:09 | 53.71582 | 10.11526 | 9485 ft | 292 kts | 116° |
| 2026-02-18 11:09 | 53.70564 | 10.14538 | 10282 ft | 301 kts | 116° |
| 2026-02-18 11:10 | 53.69251 | 10.17502 | 10607 ft | 330 kts | 131° |
| 2026-02-18 11:10 | 53.67411 | 10.20043 | 11016 ft | 351 kts | 146° |
| 2026-02-18 11:10 | 53.65191 | 10.21923 | 11709 ft | 360 kts | 159° |
| 2026-02-18 11:10 | 53.62766 | 10.23132 | 12443 ft | 367 kts | 165° |
| 2026-02-18 11:11 | 53.60247 | 10.24291 | 13187 ft | 373 kts | 165° |
| 2026-02-18 11:11 | 53.57718 | 10.25460 | 13907 ft | 379 kts | 165° |
| 2026-02-18 11:11 | 53.55157 | 10.26641 | 14532 ft | 384 kts | 165° |
| 2026-02-18 11:11 | 53.52561 | 10.27837 | 15255 ft | 387 kts | 165° |
| 2026-02-18 11:12 | 53.49948 | 10.29034 | 15971 ft | 390 kts | 166° |
| 2026-02-18 11:12 | 53.47314 | 10.30234 | 16667 ft | 394 kts | 166° |
| 2026-02-18 11:12 | 53.44655 | 10.31437 | 17354 ft | 397 kts | 166° |
| 2026-02-18 11:12 | 53.41981 | 10.32644 | 18052 ft | 401 kts | 166° |
| 2026-02-18 11:13 | 53.39262 | 10.33875 | 18688 ft | 405 kts | 167° |
| 2026-02-18 11:13 | 53.33751 | 10.36359 | 19778 ft | 415 kts | 167° |
| 2026-02-18 11:13 | 53.30942 | 10.37619 | 20337 ft | 420 kts | 168° |
| 2026-02-18 11:14 | 53.28103 | 10.38887 | 20860 ft | 424 kts | 168° |
| 2026-02-18 11:14 | 53.25242 | 10.40160 | 21448 ft | 427 kts | 169° |
| 2026-02-18 11:14 | 53.22311 | 10.41463 | 22001 ft | 431 kts | 169° |
| 2026-02-18 11:14 | 53.19400 | 10.42760 | 22544 ft | 435 kts | 169° |
| 2026-02-18 11:15 | 53.16460 | 10.44070 | 23080 ft | 439 kts | 169° |
| 2026-02-18 11:15 | 53.13490 | 10.45390 | 23592 ft | 443 kts | 170° |
| 2026-02-18 11:15 | 53.10481 | 10.46605 | 24027 ft | 445 kts | 173° |
| 2026-02-18 11:15 | 53.08458 | 10.47312 | 24321 ft | 446 kts | 174° |
| 2026-02-18 11:16 | 53.05402 | 10.48260 | 24790 ft | 448 kts | 176° |
| 2026-02-18 11:16 | 53.02280 | 10.49154 | 25261 ft | 450 kts | 176° |
| 2026-02-18 11:16 | 52.99186 | 10.50023 | 25713 ft | 452 kts | 176° |
| 2026-02-18 11:16 | 52.96077 | 10.50915 | 26173 ft | 455 kts | 176° |
| 2026-02-18 11:17 | 52.92956 | 10.51841 | 26625 ft | 457 kts | 176° |
| 2026-02-18 11:17 | 52.86655 | 10.53793 | 27522 ft | 462 kts | 175° |
| 2026-02-18 11:17 | 52.83486 | 10.54793 | 27968 ft | 465 kts | 175° |
| 2026-02-18 11:18 | 52.80335 | 10.55786 | 28409 ft | 467 kts | 176° |
| 2026-02-18 11:18 | 52.77134 | 10.56782 | 28807 ft | 469 kts | 176° |
| 2026-02-18 11:18 | 52.73924 | 10.57768 | 29289 ft | 470 kts | 176° |
| 2026-02-18 11:18 | 52.70692 | 10.58752 | 29727 ft | 472 kts | 176° |
| 2026-02-18 11:19 | 52.67455 | 10.59733 | 30103 ft | 475 kts | 176° |
| 2026-02-18 11:19 | 52.64195 | 10.60719 | 30383 ft | 479 kts | 176° |
| 2026-02-18 11:19 | 52.60905 | 10.61716 | 30692 ft | 481 kts | 176° |
| 2026-02-18 11:19 | 52.57607 | 10.62718 | 31019 ft | 484 kts | 176° |
| 2026-02-18 11:20 | 52.54274 | 10.63731 | 31339 ft | 485 kts | 176° |
| 2026-02-18 11:20 | 52.50951 | 10.64744 | 31641 ft | 487 kts | 176° |
| 2026-02-18 11:20 | 52.47623 | 10.65762 | 32132 ft | 484 kts | 176° |
| 2026-02-18 11:20 | 52.44316 | 10.66775 | 32622 ft | 482 kts | 176° |
| 2026-02-18 11:21 | 52.41022 | 10.67781 | 33078 ft | 481 kts | 176° |
| 2026-02-18 11:21 | 52.34464 | 10.69769 | 33980 ft | 479 kts | 177° |
| 2026-02-18 11:21 | 52.31178 | 10.70759 | 34351 ft | 478 kts | 177° |
| 2026-02-18 11:22 | 52.27916 | 10.71735 | 34704 ft | 477 kts | 177° |
| 2026-02-18 11:22 | 52.24647 | 10.72705 | 34950 ft | 478 kts | 177° |
| 2026-02-18 11:22 | 52.18174 | 10.74634 | 35024 ft | 472 kts | 177° |
| 2026-02-18 11:23 | 52.11736 | 10.76569 | 35016 ft | 471 kts | 176° |
| 2026-02-18 11:23 | 52.05183 | 10.78536 | 35006 ft | 471 kts | 177° |
| 2026-02-18 11:24 | 51.98722 | 10.80456 | 34999 ft | 471 kts | 177° |
| 2026-02-18 11:24 | 51.92271 | 10.82346 | 34996 ft | 472 kts | 177° |
| 2026-02-18 11:25 | 51.82563 | 10.85196 | 34978 ft | 472 kts | 177° |
| 2026-02-18 11:26 | 51.76048 | 10.87105 | 34945 ft | 472 kts | 177° |
| 2026-02-18 11:26 | 51.69560 | 10.89010 | 34955 ft | 473 kts | 176° |
| 2026-02-18 11:27 | 51.63208 | 10.92279 | 34958 ft | 484 kts | 164° |
| 2026-02-18 11:27 | 51.56911 | 10.96282 | 34953 ft | 484 kts | 165° |
| 2026-02-18 11:28 | 51.50623 | 11.00239 | 34959 ft | 484 kts | 165° |
| 2026-02-18 11:28 | 51.44281 | 11.04193 | 34972 ft | 485 kts | 165° |
| 2026-02-18 11:29 | 51.38030 | 11.08094 | 34990 ft | 485 kts | 165° |
| 2026-02-18 11:29 | 51.28596 | 11.13978 | 34970 ft | 484 kts | 165° |
| 2026-02-18 11:30 | 51.22306 | 11.17885 | 34940 ft | 484 kts | 165° |
| 2026-02-18 11:30 | 51.15937 | 11.21831 | 34959 ft | 484 kts | 165° |
| 2026-02-18 11:31 | 51.09648 | 11.25709 | 34957 ft | 484 kts | 165° |
| 2026-02-18 11:31 | 51.03376 | 11.29572 | 34960 ft | 484 kts | 165° |
| 2026-02-18 11:32 | 50.97095 | 11.33424 | 34934 ft | 483 kts | 165° |
| 2026-02-18 11:32 | 50.90702 | 11.37324 | 34970 ft | 484 kts | 165° |
| 2026-02-18 11:33 | 50.81298 | 11.43058 | 34957 ft | 484 kts | 165° |
| 2026-02-18 11:34 | 50.74964 | 11.46913 | 34923 ft | 484 kts | 166° |
| 2026-02-18 11:34 | 50.68663 | 11.50720 | 34938 ft | 485 kts | 166° |
| 2026-02-18 11:35 | 50.62333 | 11.54540 | 34949 ft | 485 kts | 166° |
| 2026-02-18 11:35 | 50.56032 | 11.58337 | 34949 ft | 485 kts | 166° |
| 2026-02-18 11:36 | 50.49732 | 11.62113 | 34946 ft | 485 kts | 166° |
| 2026-02-18 11:36 | 50.44480 | 11.65253 | 34955 ft | 485 kts | 166° |
| 2026-02-18 11:37 | 50.38165 | 11.69021 | 34938 ft | 486 kts | 166° |
| 2026-02-18 11:37 | 50.28676 | 11.74674 | 34931 ft | 486 kts | 166° |
| 2026-02-18 11:38 | 50.22345 | 11.78429 | 34939 ft | 486 kts | 166° |
| 2026-02-18 11:38 | 50.16019 | 11.82159 | 34947 ft | 486 kts | 166° |
| 2026-02-18 11:39 | 50.09676 | 11.85897 | 34955 ft | 486 kts | 166° |
| 2026-02-18 11:39 | 50.03361 | 11.89620 | 34932 ft | 485 kts | 166° |
| 2026-02-18 11:40 | 49.96990 | 11.93361 | 34959 ft | 485 kts | 166° |
| 2026-02-18 11:40 | 49.90674 | 11.97054 | 34956 ft | 485 kts | 166° |
| 2026-02-18 11:41 | 49.81215 | 12.02548 | 34951 ft | 486 kts | 166° |
| 2026-02-18 11:42 | 49.74884 | 12.06220 | 34922 ft | 486 kts | 166° |
| 2026-02-18 11:42 | 49.68402 | 12.08538 | 34934 ft | 468 kts | 184° |
| 2026-02-18 11:43 | 49.61968 | 12.08717 | 34945 ft | 462 kts | 188° |
| 2026-02-18 11:43 | 49.55513 | 12.08807 | 34910 ft | 463 kts | 188° |
| 2026-02-18 11:44 | 49.49038 | 12.08914 | 34976 ft | 465 kts | 188° |
| 2026-02-18 11:44 | 49.42607 | 12.09003 | 34979 ft | 465 kts | 188° |
| 2026-02-18 11:45 | 49.36133 | 12.09082 | 34986 ft | 464 kts | 188° |
| 2026-02-18 11:45 | 49.26424 | 12.09209 | 34971 ft | 464 kts | 188° |
| 2026-02-18 11:46 | 49.19961 | 12.09311 | 34965 ft | 465 kts | 188° |
| 2026-02-18 11:46 | 49.13498 | 12.09412 | 34974 ft | 465 kts | 188° |
| 2026-02-18 11:47 | 49.07016 | 12.09488 | 34983 ft | 467 kts | 188° |
| 2026-02-18 11:47 | 49.00504 | 12.09567 | 34996 ft | 467 kts | 188° |
| 2026-02-18 11:48 | 48.94012 | 12.09656 | 35003 ft | 466 kts | 188° |
| 2026-02-18 11:48 | 48.87490 | 12.09740 | 34972 ft | 466 kts | 189° |
| 2026-02-18 11:49 | 48.77747 | 12.09876 | 34982 ft | 466 kts | 188° |
| 2026-02-18 11:50 | 48.71237 | 12.09970 | 34991 ft | 466 kts | 188° |
| 2026-02-18 11:50 | 48.64741 | 12.10045 | 34966 ft | 466 kts | 189° |
| 2026-02-18 11:51 | 48.58273 | 12.10118 | 34989 ft | 467 kts | 189° |
| 2026-02-18 11:51 | 48.51764 | 12.10212 | 34995 ft | 467 kts | 188° |
| 2026-02-18 11:52 | 48.45406 | 12.09382 | 34995 ft | 455 kts | 198° |
| 2026-02-18 11:52 | 48.39132 | 12.08068 | 34968 ft | 455 kts | 198° |
| 2026-02-18 11:53 | 48.32876 | 12.06762 | 34972 ft | 455 kts | 198° |
| 2026-02-18 11:53 | 48.23472 | 12.04821 | 34977 ft | 455 kts | 198° |
| 2026-02-18 11:54 | 48.17195 | 12.03535 | 34978 ft | 455 kts | 198° |
| 2026-02-18 11:54 | 48.10908 | 12.02242 | 34989 ft | 455 kts | 198° |
| 2026-02-18 11:55 | 48.04618 | 12.00941 | 34983 ft | 455 kts | 198° |
| 2026-02-18 11:55 | 47.98352 | 11.99647 | 34966 ft | 456 kts | 198° |
| 2026-02-18 11:56 | 47.92056 | 11.98354 | 34979 ft | 456 kts | 198° |
| 2026-02-18 11:56 | 47.85769 | 11.97090 | 34978 ft | 456 kts | 198° |
| 2026-02-18 11:57 | 47.76364 | 11.95191 | 34954 ft | 456 kts | 198° |
| 2026-02-18 11:58 | 47.70218 | 11.93167 | 34964 ft | 441 kts | 208° |
| 2026-02-18 11:58 | 47.64364 | 11.90370 | 34972 ft | 442 kts | 208° |
| 2026-02-18 11:59 | 47.58509 | 11.87590 | 34965 ft | 442 kts | 208° |
| 2026-02-18 11:59 | 47.52601 | 11.84795 | 34987 ft | 444 kts | 208° |
| 2026-02-18 12:00 | 47.46703 | 11.82012 | 34995 ft | 444 kts | 208° |
| 2026-02-18 12:00 | 47.40810 | 11.79245 | 34989 ft | 443 kts | 208° |
| 2026-02-18 12:01 | 47.34775 | 11.76958 | 34983 ft | 459 kts | 196° |
| 2026-02-18 12:01 | 47.25093 | 11.76345 | 34986 ft | 465 kts | 192° |
| 2026-02-18 12:02 | 47.18627 | 11.76001 | 34964 ft | 464 kts | 192° |
| 2026-02-18 12:02 | 47.12241 | 11.75221 | 34987 ft | 451 kts | 202° |
| 2026-02-18 12:03 | 47.09262 | 11.73994 | 35007 ft | 438 kts | 211° |
| 2026-02-18 12:03 | 47.06508 | 11.72253 | 35007 ft | 430 kts | 216° |
| 2026-02-18 12:03 | 47.01973 | 11.69181 | 35015 ft | 431 kts | 215° |
| 2026-02-18 12:04 | 46.96508 | 11.65523 | 34997 ft | 431 kts | 215° |
| 2026-02-18 12:04 | 46.91067 | 11.61886 | 35011 ft | 431 kts | 215° |
| 2026-02-18 12:05 | 46.82877 | 11.56403 | 35018 ft | 431 kts | 215° |
| 2026-02-18 12:06 | 46.77406 | 11.52755 | 34991 ft | 431 kts | 215° |
| 2026-02-18 12:06 | 46.71953 | 11.49134 | 34996 ft | 431 kts | 215° |
| 2026-02-18 12:07 | 46.66519 | 11.45539 | 34998 ft | 430 kts | 215° |
| 2026-02-18 12:07 | 46.61037 | 11.41905 | 34996 ft | 430 kts | 215° |
| 2026-02-18 12:08 | 46.52863 | 11.36491 | 34979 ft | 430 kts | 215° |
| 2026-02-18 12:08 | 46.47399 | 11.32895 | 34966 ft | 435 kts | 213° |
| 2026-02-18 12:09 | 46.44471 | 11.31475 | 34977 ft | 450 kts | 204° |
| 2026-02-18 12:09 | 46.38383 | 11.29258 | 34920 ft | 451 kts | 204° |
| 2026-02-18 12:10 | 46.32286 | 11.27051 | 34949 ft | 451 kts | 204° |
| 2026-02-18 12:10 | 46.26218 | 11.24857 | 34755 ft | 451 kts | 204° |
| 2026-02-18 12:10 | 46.23122 | 11.23735 | 34203 ft | 453 kts | 204° |
| 2026-02-18 12:11 | 46.20062 | 11.22618 | 33555 ft | 455 kts | 204° |
| 2026-02-18 12:11 | 46.17002 | 11.21503 | 32867 ft | 454 kts | 204° |
| 2026-02-18 12:11 | 46.13932 | 11.20390 | 32197 ft | 453 kts | 204° |
| 2026-02-18 12:11 | 46.10876 | 11.19287 | 31545 ft | 452 kts | 204° |
| 2026-02-18 12:12 | 46.07825 | 11.18189 | 30905 ft | 451 kts | 204° |
| 2026-02-18 12:12 | 46.04783 | 11.17096 | 30298 ft | 450 kts | 203° |
| 2026-02-18 12:12 | 46.01760 | 11.16005 | 29576 ft | 448 kts | 203° |
| 2026-02-18 12:12 | 45.98745 | 11.14917 | 28871 ft | 447 kts | 203° |
| 2026-02-18 12:13 | 45.95721 | 11.13830 | 28171 ft | 445 kts | 202° |
| 2026-02-18 12:13 | 45.89746 | 11.11683 | 26840 ft | 440 kts | 202° |
| 2026-02-18 12:13 | 45.86788 | 11.10622 | 26189 ft | 436 kts | 202° |
| 2026-02-18 12:14 | 45.83859 | 11.09573 | 25569 ft | 433 kts | 202° |
| 2026-02-18 12:14 | 45.80934 | 11.08525 | 24915 ft | 431 kts | 202° |
| 2026-02-18 12:14 | 45.78039 | 11.07492 | 24330 ft | 427 kts | 202° |
| 2026-02-18 12:14 | 45.75135 | 11.06459 | 23736 ft | 424 kts | 202° |
| 2026-02-18 12:15 | 45.72275 | 11.05440 | 23071 ft | 421 kts | 201° |
| 2026-02-18 12:15 | 45.69422 | 11.04539 | 22439 ft | 424 kts | 194° |
| 2026-02-18 12:15 | 45.66441 | 11.04732 | 21849 ft | 437 kts | 173° |
| 2026-02-18 12:15 | 45.63628 | 11.06419 | 21268 ft | 446 kts | 150° |
| 2026-02-18 12:16 | 45.61375 | 11.09476 | 20686 ft | 449 kts | 127° |
| 2026-02-18 12:16 | 45.59661 | 11.13173 | 20133 ft | 446 kts | 123° |
| 2026-02-18 12:16 | 45.57994 | 11.16899 | 19578 ft | 442 kts | 122° |
| 2026-02-18 12:16 | 45.56349 | 11.20598 | 19050 ft | 439 kts | 122° |
| 2026-02-18 12:17 | 45.54716 | 11.24266 | 18523 ft | 435 kts | 122° |
| 2026-02-18 12:17 | 45.51533 | 11.31362 | 17339 ft | 410 kts | 122° |
| 2026-02-18 12:17 | 45.50016 | 11.34716 | 16762 ft | 397 kts | 122° |
| 2026-02-18 12:18 | 45.48523 | 11.38008 | 16188 ft | 387 kts | 122° |
| 2026-02-18 12:18 | 45.47068 | 11.41213 | 15628 ft | 381 kts | 122° |
| 2026-02-18 12:18 | 45.45630 | 11.44375 | 15081 ft | 379 kts | 122° |
| 2026-02-18 12:18 | 45.44218 | 11.47481 | 14556 ft | 374 kts | 122° |
| 2026-02-18 12:19 | 45.42840 | 11.50625 | 14133 ft | 366 kts | 117° |
| 2026-02-18 12:19 | 45.41860 | 11.53909 | 13716 ft | 357 kts | 108° |
| 2026-02-18 12:19 | 45.40998 | 11.57192 | 13252 ft | 349 kts | 109° |
| 2026-02-18 12:19 | 45.40150 | 11.60395 | 12787 ft | 343 kts | 110° |
| 2026-02-18 12:20 | 45.39285 | 11.63547 | 12390 ft | 341 kts | 114° |
| 2026-02-18 12:20 | 45.37964 | 11.66334 | 12027 ft | 336 kts | 133° |
| 2026-02-18 12:20 | 45.36417 | 11.68811 | 11654 ft | 332 kts | 134° |
| 2026-02-18 12:20 | 45.34870 | 11.71247 | 11286 ft | 330 kts | 134° |
| 2026-02-18 12:21 | 45.33351 | 11.73649 | 10931 ft | 324 kts | 134° |
| 2026-02-18 12:21 | 45.30418 | 11.78353 | 10234 ft | 312 kts | 134° |
| 2026-02-18 12:21 | 45.29006 | 11.80653 | 9887 ft | 307 kts | 134° |
| 2026-02-18 12:22 | 45.27626 | 11.82938 | 9507 ft | 302 kts | 132° |
| 2026-02-18 12:22 | 45.26605 | 11.85532 | 9063 ft | 302 kts | 109° |
| 2026-02-18 12:22 | 45.26337 | 11.88436 | 8617 ft | 295 kts | 85° |
| 2026-02-18 12:22 | 45.26581 | 11.91386 | 8213 ft | 287 kts | 82° |
| 2026-02-18 12:23 | 45.26816 | 11.94110 | 7830 ft | 281 kts | 82° |
| 2026-02-18 12:23 | 45.27045 | 11.96844 | 7446 ft | 275 kts | 82° |
| 2026-02-18 12:23 | 45.27265 | 11.99510 | 7071 ft | 269 kts | 82° |
| 2026-02-18 12:23 | 45.27481 | 12.02124 | 6693 ft | 264 kts | 82° |
| 2026-02-18 12:24 | 45.27758 | 12.04685 | 6121 ft | 264 kts | 71° |
| 2026-02-18 12:24 | 45.28586 | 12.06986 | 5610 ft | 261 kts | 51° |
| 2026-02-18 12:24 | 45.29850 | 12.08773 | 5241 ft | 253 kts | 41° |
| 2026-02-18 12:24 | 45.31149 | 12.10420 | 4903 ft | 246 kts | 42° |
| 2026-02-18 12:25 | 45.32425 | 12.12043 | 4558 ft | 238 kts | 43° |
| 2026-02-18 12:25 | 45.34798 | 12.15065 | 3915 ft | 213 kts | 44° |
| 2026-02-18 12:25 | 45.35857 | 12.16415 | 3634 ft | 196 kts | 44° |
| 2026-02-18 12:26 | 45.36822 | 12.17646 | 3416 ft | 177 kts | 44° |
| 2026-02-18 12:26 | 45.37710 | 12.18780 | 3161 ft | 164 kts | 44° |
| 2026-02-18 12:26 | 45.38532 | 12.19831 | 2940 ft | 153 kts | 45° |
| 2026-02-18 12:26 | 45.39049 | 12.20491 | 2805 ft | 143 kts | 45° |
| 2026-02-18 12:27 | 45.40007 | 12.21716 | 2540 ft | 136 kts | 45° |
| 2026-02-18 12:27 | 45.40482 | 12.22325 | 2415 ft | 135 kts | 45° |
| 2026-02-18 12:27 | 45.41173 | 12.23208 | 2234 ft | 133 kts | 45° |
| 2026-02-18 12:27 | 45.41856 | 12.24083 | 2047 ft | 131 kts | 44° |
| 2026-02-18 12:28 | 45.42533 | 12.24950 | 1874 ft | 131 kts | 45° |
| 2026-02-18 12:28 | 45.43211 | 12.25818 | 1702 ft | 130 kts | 44° |
| 2026-02-18 12:28 | 45.43883 | 12.26678 | 1495 ft | 130 kts | 44° |
| 2026-02-18 12:28 | 45.44556 | 12.27540 | 1325 ft | 129 kts | 44° |
| 2026-02-18 12:29 | 45.45218 | 12.28388 | 1146 ft | 128 kts | 43° |
| 2026-02-18 12:29 | 45.46529 | 12.30063 | 793 ft | 127 kts | 43° |
| 2026-02-18 12:29 | 45.47192 | 12.30899 | 594 ft | 128 kts | 43° |
| 2026-02-18 12:30 | 45.47857 | 12.31754 | 414 ft | 128 kts | 45° |
| 2026-02-18 12:30 | 45.48521 | 12.32610 | 288 ft | 129 kts | 45° |
| 2026-02-18 12:30 | 45.49179 | 12.33474 | 136 ft | 128 kts | 44° |
| 2026-02-18 12:30 | 45.49835 | 12.34311 | 13 ft | 117 kts | 44° |
| 2026-02-18 12:31 | 45.50344 | 12.34972 | 11 ft | 74 kts | 42° |
| 2026-02-18 12:31 | 45.50589 | 12.35280 | 11 ft | 35 kts | 39° |
| 2026-02-18 12:31 | 45.50722 | 12.35391 | 15 ft | 13 kts | 20° |
| 2026-02-18 12:31 | 45.50823 | 12.35430 | 18 ft | 17 kts | 13° |
| 2026-02-18 12:32 | 45.50918 | 12.35439 | 17 ft | 11 kts | 330° |
| 2026-02-18 12:32 | 45.50961 | 12.35345 | 19 ft | 12 kts | 293° |
| 2026-02-18 12:32 | 45.50957 | 12.35224 | 19 ft | 14 kts | 249° |
| 2026-02-18 12:32 | 45.50886 | 12.35115 | 19 ft | 16 kts | 222° |
| 2026-02-18 12:33 | 45.50793 | 12.34993 | 16 ft | 21 kts | 223° |
| 2026-02-18 12:33 | 45.50606 | 12.34753 | 14 ft | 19 kts | 222° |
| 2026-02-18 12:33 | 45.50530 | 12.34655 | 17 ft | 8 kts | 221° |
| 2026-02-18 12:34 | 45.50495 | 12.34594 | 18 ft | 9 kts | 264° |
| 2026-02-18 12:34 | 45.50530 | 12.34509 | 17 ft | 12 kts | 312° |
| 2026-02-18 12:34 | 45.50590 | 12.34415 | 15 ft | 11 kts | 312° |
| 2026-02-18 12:34 | 45.50615 | 12.34307 | 14 ft | 10 kts | 269° |
| 2026-02-18 12:35 | 45.50614 | 12.34246 | 14 ft | 4 kts | 267° |
| 2026-02-18 12:35 | 45.50613 | 12.34214 | 14 ft | 3 kts | 268° |
| 2026-02-18 12:35 | 45.50613 | 12.34203 | 14 ft | 0 kts | 269° |